Terminal Aerodrome Forecast
Issued by NWS Albany, NY

Home | Current Version | Previous Version | Text Only | Print | Product List | Glossary On
Versions: 1 2 3 4 5 6 7 8 9 10 11 12 13
000
FTUS41 KALY 201100
TAFALB
TAF
KALB 201139Z 2012/2112 18012KT P6SM BKN035 BKN080
     FM201500 18015G22KT P6SM SCT040 BKN080
     FM210200 17010G16KT P6SM BKN040
     FM210800 17008KT P6SM BKN020=

USA.gov is the U.S. government's official web portal to all federal, state and local government web resources and services.